Columbus, New Mexico
Current Conditions -  °F | °C
As of 8:53 PM on Tuesday 21 Oct 2014 (Local Time) from KDMN Reporting Station
Clear Clear  
Wind Chill: 62°   Ceiling: Unl
Heat Index: 62°   Visibility: 10mi
Dew Point: 54°   Wind: 6mph
Humidity: 75%   Direction: 120°ESE
Pressure: 30.04"   Gusts: NA
Location:  31.83°N, 107.64°W
Report Text: KDMN 220253Z AUTO 12005KT 10SM CLR 17/12 A3004 RMK AO2 SLP122 T01670122 53010
Loading
Personal Weather Stations






























Interactive Weather Map
Tropical Storm Tracking
New forecast layout! Learn more

10-Day Weather Forecast

Advertisements
Track Severe Weather on mobile